createdAt,value
2018-05-07T00:00:15.426Z,15.90
2018-05-07T00:01:20.069Z,15.86
2018-05-07T00:02:24.685Z,15.84
2018-05-07T00:03:29.176Z,15.83
2018-05-07T00:04:33.672Z,15.84
2018-05-07T00:05:38.606Z,15.80
2018-05-07T00:06:43.155Z,15.81
2018-05-07T00:07:47.764Z,15.78
2018-05-07T00:08:52.312Z,15.76
2018-05-07T00:09:56.838Z,15.75
2018-05-07T00:11:01.422Z,15.72
2018-05-07T00:12:06.314Z,15.68
2018-05-07T00:13:10.885Z,15.67
2018-05-07T00:14:15.347Z,15.69
2018-05-07T00:15:19.905Z,15.70
2018-05-07T00:16:24.452Z,15.67
2018-05-07T00:17:28.927Z,15.63
2018-05-07T00:18:33.953Z,15.62
2018-05-07T00:19:38.456Z,15.63
2018-05-07T00:20:43.024Z,15.66
2018-05-07T00:21:47.538Z,15.60
2018-05-07T00:22:52.142Z,15.56
2018-05-07T00:23:56.634Z,15.51
2018-05-07T00:25:01.583Z,15.51
2018-05-07T00:26:06.100Z,15.50
2018-05-07T00:27:10.636Z,15.46
2018-05-07T00:28:15.122Z,15.36
2018-05-07T00:29:19.633Z,15.40
2018-05-07T00:30:24.150Z,15.38
2018-05-07T00:31:29.091Z,15.35
2018-05-07T00:32:33.576Z,15.33
2018-05-07T00:33:38.085Z,15.33
2018-05-07T00:34:42.577Z,15.36
2018-05-07T00:35:47.098Z,15.35
2018-05-07T00:36:51.644Z,15.36
2018-05-07T00:37:56.554Z,15.40
2018-05-07T00:39:01.064Z,15.33
2018-05-07T00:40:05.594Z,15.27
2018-05-07T00:41:10.089Z,15.28
2018-05-07T00:42:14.611Z,15.26
2018-05-07T00:43:19.208Z,15.29
2018-05-07T00:44:24.028Z,15.31
2018-05-07T00:45:28.489Z,15.30
2018-05-07T00:46:32.968Z,15.27
2018-05-07T00:47:37.505Z,15.29
2018-05-07T00:48:42.023Z,15.28
2018-05-07T00:49:46.582Z,15.29
2018-05-07T00:50:51.535Z,15.28
2018-05-07T00:51:56.046Z,15.25
2018-05-07T00:53:00.510Z,15.28
2018-05-07T00:54:05.029Z,15.30
2018-05-07T00:55:21.562Z,15.25
2018-05-07T00:56:26.539Z,15.22
2018-05-07T00:57:31.006Z,15.23
2018-05-07T00:58:35.533Z,15.19
2018-05-07T00:59:40.074Z,15.23
2018-05-07T01:00:44.616Z,15.23
2018-05-07T01:01:49.187Z,15.19
2018-05-07T01:02:54.036Z,15.13
2018-05-07T01:03:58.550Z,15.10
2018-05-07T01:05:03.019Z,15.10
2018-05-07T01:06:07.599Z,15.08
2018-05-07T01:07:12.108Z,15.07
2018-05-07T01:08:16.669Z,15.05
2018-05-07T01:09:21.499Z,15.03
2018-05-07T01:10:26.021Z,15.00
2018-05-07T01:11:30.546Z,15.00
2018-05-07T01:12:35.085Z,15.01
2018-05-07T01:13:39.589Z,14.93
2018-05-07T01:14:44.124Z,15.00
2018-05-07T01:15:48.999Z,15.04
2018-05-07T01:16:53.474Z,14.96
2018-05-07T01:17:57.982Z,14.90
2018-05-07T01:19:02.471Z,14.94
2018-05-07T01:20:10.345Z,14.91
2018-05-07T01:21:14.835Z,14.84
2018-05-07T01:22:19.746Z,14.84
2018-05-07T01:23:24.227Z,14.92
2018-05-07T01:24:28.741Z,14.93
2018-05-07T01:25:34.438Z,14.86
2018-05-07T01:26:39.036Z,14.79
2018-05-07T01:27:43.539Z,14.74
2018-05-07T01:28:48.470Z,14.71
2018-05-07T01:29:53.180Z,14.78
2018-05-07T01:30:57.733Z,14.73
2018-05-07T01:32:02.296Z,14.69
2018-05-07T01:33:06.854Z,14.70
2018-05-07T01:34:11.461Z,14.66
2018-05-07T01:35:16.450Z,14.65
2018-05-07T01:36:21.047Z,14.57
2018-05-07T01:37:25.605Z,14.52
2018-05-07T01:38:30.207Z,14.51
2018-05-07T01:39:34.786Z,14.56
2018-05-07T01:40:39.369Z,14.58
2018-05-07T01:41:44.348Z,14.57
2018-05-07T01:42:48.987Z,14.53
2018-05-07T01:43:53.532Z,14.51
2018-05-07T01:44:58.094Z,14.47
2018-05-07T01:46:02.664Z,14.50
2018-05-07T01:47:07.305Z,14.56
2018-05-07T01:48:12.176Z,14.54
2018-05-07T01:49:16.753Z,14.55
2018-05-07T01:50:21.301Z,14.53
2018-05-07T01:51:25.901Z,14.47
2018-05-07T01:52:30.493Z,14.53
2018-05-07T01:53:35.072Z,14.53
2018-05-07T01:54:39.983Z,14.60
2018-05-07T01:55:44.563Z,14.59
2018-05-07T01:56:49.131Z,14.56
2018-05-07T01:57:53.659Z,14.44
2018-05-07T01:58:58.282Z,14.50
2018-05-07T02:00:02.832Z,14.50
2018-05-07T02:01:07.859Z,14.51
2018-05-07T02:02:12.400Z,14.48
2018-05-07T02:03:16.944Z,14.45
2018-05-07T02:04:21.559Z,14.36
2018-05-07T02:05:26.101Z,14.30
2018-05-07T02:06:30.684Z,14.38
2018-05-07T02:07:35.525Z,14.40
2018-05-07T02:08:39.999Z,14.43
2018-05-07T02:09:44.694Z,14.41
2018-05-07T02:10:49.264Z,14.45
2018-05-07T02:11:53.878Z,14.49
2018-05-07T02:12:58.447Z,14.52
2018-05-07T02:14:03.482Z,14.43
2018-05-07T02:15:08.037Z,14.40
2018-05-07T02:16:12.650Z,14.42
2018-05-07T02:17:17.168Z,14.45
2018-05-07T02:18:21.691Z,14.45
2018-05-07T02:19:26.254Z,14.40
2018-05-07T02:20:31.141Z,14.45
2018-05-07T02:21:35.670Z,14.48
2018-05-07T02:22:40.796Z,14.46
2018-05-07T02:23:45.370Z,14.43
2018-05-07T02:24:49.950Z,14.43
2018-05-07T02:25:54.473Z,14.35
2018-05-07T02:26:59.026Z,14.25
2018-05-07T02:28:03.593Z,14.27
2018-05-07T02:29:08.091Z,14.26
2018-05-07T02:30:12.559Z,14.28
2018-05-07T02:31:17.030Z,14.27
2018-05-07T02:32:21.869Z,14.29
2018-05-07T02:33:26.334Z,14.28
2018-05-07T02:34:30.781Z,14.28
2018-05-07T02:35:35.241Z,14.30
2018-05-07T02:36:39.706Z,14.21
2018-05-07T02:37:44.136Z,14.24
2018-05-07T02:38:49.047Z,14.21
2018-05-07T02:39:53.630Z,14.13
2018-05-07T02:40:58.233Z,14.09
2018-05-07T02:42:02.840Z,14.07
2018-05-07T02:43:07.398Z,14.10
2018-05-07T02:44:11.962Z,14.08
2018-05-07T02:45:16.980Z,14.07
2018-05-07T02:46:21.542Z,14.03
2018-05-07T02:47:26.083Z,13.97
2018-05-07T02:48:30.546Z,14.02
2018-05-07T02:49:35.002Z,14.00
2018-05-07T02:50:39.553Z,13.95
2018-05-07T02:51:44.313Z,13.97
2018-05-07T02:52:48.817Z,13.94
2018-05-07T02:53:53.313Z,13.94
2018-05-07T02:54:57.800Z,14.00
2018-05-07T02:56:02.283Z,13.94
2018-05-07T02:57:06.733Z,13.88
2018-05-07T02:58:11.723Z,13.78
2018-05-07T02:59:16.199Z,13.82
2018-05-07T03:00:20.655Z,13.85
2018-05-07T03:01:25.159Z,13.73
2018-05-07T03:02:29.604Z,13.67
2018-05-07T03:03:34.087Z,13.62
2018-05-07T03:04:38.881Z,13.57
2018-05-07T03:05:43.422Z,13.53
2018-05-07T03:06:47.936Z,13.58
2018-05-07T03:07:52.446Z,13.54
2018-05-07T03:08:57.040Z,13.47
2018-05-07T03:10:01.650Z,13.39
2018-05-07T03:11:06.619Z,13.48
2018-05-07T03:12:11.213Z,13.52
2018-05-07T03:13:15.775Z,13.53
2018-05-07T03:14:20.344Z,13.53
2018-05-07T03:15:24.901Z,13.58
2018-05-07T03:16:29.432Z,13.61
2018-05-07T03:17:34.426Z,13.59
2018-05-07T03:18:38.944Z,13.56
2018-05-07T03:19:43.416Z,13.61
2018-05-07T03:20:47.908Z,13.63
2018-05-07T03:21:52.392Z,13.51
2018-05-07T03:22:56.837Z,13.52
2018-05-07T03:24:01.745Z,13.49
2018-05-07T03:25:06.249Z,13.50
2018-05-07T03:26:11.288Z,13.48
2018-05-07T03:27:15.776Z,13.48
2018-05-07T03:28:20.217Z,13.46
2018-05-07T03:29:24.680Z,13.50
2018-05-07T03:30:29.644Z,13.54
2018-05-07T03:31:34.225Z,13.57
2018-05-07T03:32:38.707Z,13.50
2018-05-07T03:33:43.183Z,13.53
2018-05-07T03:34:47.679Z,13.39
2018-05-07T03:35:52.588Z,13.43
2018-05-07T03:36:57.100Z,13.38
2018-05-07T03:38:01.608Z,13.37
2018-05-07T03:39:06.119Z,13.33
2018-05-07T03:40:10.584Z,13.20
2018-05-07T03:41:15.800Z,13.13
2018-05-07T03:42:20.709Z,13.11
2018-05-07T03:43:25.231Z,13.10
2018-05-07T03:44:29.925Z,13.04
2018-05-07T03:45:34.365Z,12.97
2018-05-07T03:46:38.831Z,12.91
2018-05-07T03:47:43.336Z,12.85
2018-05-07T03:48:49.522Z,12.79
2018-05-07T03:49:54.029Z,12.80
2018-05-07T03:50:58.610Z,12.81
2018-05-07T03:52:03.696Z,12.81
2018-05-07T03:53:08.234Z,12.78
2018-05-07T03:54:12.729Z,12.86
2018-05-07T03:55:17.726Z,12.88
2018-05-07T03:56:22.208Z,12.98
2018-05-07T03:57:26.697Z,13.02
2018-05-07T03:58:31.163Z,12.88
2018-05-07T03:59:35.651Z,12.95
2018-05-07T04:00:40.231Z,12.88
2018-05-07T04:01:44.833Z,12.68
2018-05-07T04:02:49.399Z,12.67
2018-05-07T04:03:54.039Z,12.60
2018-05-07T04:04:59.090Z,12.52
2018-05-07T04:06:03.661Z,12.62
2018-05-07T04:07:08.532Z,12.60
2018-05-07T04:08:13.555Z,12.55
2018-05-07T04:09:18.120Z,12.59
2018-05-07T04:10:22.709Z,12.55
2018-05-07T04:11:27.253Z,12.47
2018-05-07T04:12:31.920Z,12.34
2018-05-07T04:13:36.371Z,12.30
2018-05-07T04:14:41.128Z,12.28
2018-05-07T04:15:45.577Z,12.39
2018-05-07T04:18:58.402Z,12.38
2018-05-07T04:20:08.515Z,12.50
2018-05-07T04:21:13.109Z,12.42
2018-05-07T04:22:22.692Z,12.34
2018-05-07T04:23:32.422Z,12.39
2018-05-07T04:24:36.999Z,12.49
2018-05-07T04:25:41.551Z,12.51
2018-05-07T04:26:46.447Z,12.47
2018-05-07T04:27:51.013Z,12.47
2018-05-07T04:28:57.830Z,12.46
2018-05-07T04:30:03.035Z,12.43
2018-05-07T04:31:08.097Z,12.41
2018-05-07T04:32:13.385Z,12.47
2018-05-07T04:33:18.417Z,12.50
2018-05-07T04:34:23.019Z,12.47
2018-05-07T04:35:27.604Z,12.38
2018-05-07T04:36:32.265Z,12.44
2018-05-07T04:37:36.798Z,12.45
2018-05-07T04:38:41.473Z,12.43
2018-05-07T04:39:46.480Z,12.41
2018-05-07T04:40:51.047Z,12.46
2018-05-07T04:41:55.665Z,12.49
2018-05-07T04:43:00.284Z,12.33
2018-05-07T04:44:04.869Z,12.43
2018-05-07T04:45:09.540Z,12.50
2018-05-07T04:46:14.449Z,12.59
2018-05-07T04:47:19.033Z,12.62
2018-05-07T04:48:23.606Z,12.61
2018-05-07T04:49:28.152Z,12.66
2018-05-07T04:50:32.787Z,12.68
2018-05-07T04:51:37.329Z,12.73
2018-05-07T04:52:42.305Z,12.72
2018-05-07T04:53:47.680Z,12.58
2018-05-07T04:54:52.304Z,12.58
2018-05-07T04:55:56.833Z,12.60
2018-05-07T04:57:01.376Z,12.60
2018-05-07T04:58:05.954Z,12.67
2018-05-07T04:59:11.010Z,12.72
2018-05-07T05:00:15.483Z,12.76
2018-05-07T05:01:20.205Z,12.80
2018-05-07T05:02:24.729Z,12.84
2018-05-07T05:03:29.210Z,12.95
2018-05-07T05:04:33.736Z,12.96
2018-05-07T05:05:39.065Z,12.96
2018-05-07T05:06:43.737Z,12.96
2018-05-07T05:07:48.311Z,13.00
2018-05-07T05:08:53.797Z,13.02
2018-05-07T05:09:58.375Z,12.98
2018-05-07T05:11:03.138Z,13.07
2018-05-07T05:12:08.221Z,13.11
2018-05-07T05:13:12.830Z,13.11
2018-05-07T05:14:17.388Z,13.06
2018-05-07T05:15:21.977Z,13.00
2018-05-07T05:16:26.565Z,12.98
2018-05-07T05:17:31.097Z,13.02
2018-05-07T05:18:36.098Z,13.03
2018-05-07T05:19:40.600Z,13.06
2018-05-07T05:20:48.939Z,13.06
2018-05-07T05:21:53.509Z,13.11
2018-05-07T05:22:58.017Z,13.22
2018-05-07T05:24:02.542Z,13.13
2018-05-07T05:25:07.447Z,13.16
2018-05-07T05:26:11.981Z,13.12
2018-05-07T05:27:16.510Z,13.09
2018-05-07T05:28:21.032Z,13.19
2018-05-07T05:29:25.622Z,13.25
2018-05-07T05:30:30.223Z,13.24
2018-05-07T05:31:35.179Z,13.24
2018-05-07T05:32:39.788Z,13.20
2018-05-07T05:33:44.353Z,13.19
2018-05-07T05:34:49.009Z,13.19
2018-05-07T05:35:53.681Z,13.27
2018-05-07T05:36:58.312Z,13.30
2018-05-07T05:38:03.285Z,13.27
2018-05-07T05:39:08.067Z,13.29
2018-05-07T05:40:12.721Z,13.38
2018-05-07T05:41:17.296Z,13.33
2018-05-07T05:42:21.915Z,13.38
2018-05-07T05:43:26.575Z,13.35
2018-05-07T05:44:31.566Z,13.39
2018-05-07T05:45:36.288Z,13.46
2018-05-07T05:46:40.849Z,13.49
2018-05-07T05:47:45.441Z,13.52
2018-05-07T05:48:50.132Z,13.56
2018-05-07T05:49:54.803Z,13.67
2018-05-07T05:51:00.047Z,13.77
2018-05-07T05:52:04.623Z,13.73
2018-05-07T05:53:09.203Z,13.78
2018-05-07T05:54:13.777Z,13.83
2018-05-07T05:55:18.348Z,13.96
2018-05-07T05:56:22.957Z,14.09
2018-05-07T05:57:27.880Z,14.19
2018-05-07T05:58:32.445Z,14.16
2018-05-07T05:59:36.955Z,14.23
2018-05-07T06:00:41.511Z,14.27
2018-05-07T06:01:46.007Z,14.37
2018-05-07T06:02:50.565Z,14.44
2018-05-07T06:03:55.557Z,14.55
2018-05-07T06:05:00.113Z,14.67
2018-05-07T06:06:04.579Z,14.73
2018-05-07T06:07:09.070Z,14.83
2018-05-07T06:08:14.054Z,14.96
2018-05-07T06:09:18.552Z,15.04
2018-05-07T06:10:23.191Z,15.16
2018-05-07T06:11:27.692Z,15.21
2018-05-07T06:12:32.232Z,15.33
2018-05-07T06:13:36.725Z,15.46
2018-05-07T06:14:41.386Z,15.54
2018-05-07T06:15:45.891Z,15.59
2018-05-07T06:16:50.433Z,15.72
2018-05-07T06:17:54.915Z,15.77
2018-05-07T06:19:00.170Z,15.79
2018-05-07T06:20:04.750Z,15.85
2018-05-07T06:21:09.641Z,15.80
2018-05-07T06:22:14.990Z,15.77
2018-05-07T06:23:19.500Z,15.87
2018-05-07T06:24:23.969Z,15.97
2018-05-07T06:25:28.447Z,16.04
2018-05-07T06:26:33.091Z,16.05
2018-05-07T06:27:38.000Z,16.14
2018-05-07T06:28:42.628Z,16.29
2018-05-07T06:29:47.348Z,16.37
2018-05-07T06:30:52.009Z,16.41
2018-05-07T06:31:56.567Z,16.42
2018-05-07T06:33:01.157Z,16.58
2018-05-07T06:34:06.052Z,16.63
2018-05-07T06:35:10.629Z,16.58
2018-05-07T06:36:15.193Z,16.54
2018-05-07T06:37:19.892Z,16.56
2018-05-07T06:38:25.008Z,16.61
2018-05-07T06:39:29.970Z,16.77
2018-05-07T06:40:38.944Z,16.86
2018-05-07T06:41:43.859Z,17.01
2018-05-07T06:42:48.415Z,16.99
2018-05-07T06:43:53.000Z,17.10
2018-05-07T06:44:57.593Z,17.07
2018-05-07T06:46:02.324Z,17.16
2018-05-07T06:47:07.339Z,17.23
2018-05-07T06:48:12.000Z,17.29
2018-05-07T06:49:16.620Z,17.25
2018-05-07T06:50:21.087Z,17.39
2018-05-07T06:51:25.583Z,17.51
2018-05-07T06:52:30.108Z,17.59
2018-05-07T06:53:34.951Z,17.80
2018-05-07T06:54:39.541Z,18.03
2018-05-07T06:55:44.047Z,17.82
2018-05-07T06:56:48.624Z,17.93
2018-05-07T06:57:53.196Z,17.97
2018-05-07T06:58:57.741Z,17.97
2018-05-07T07:00:02.608Z,18.14
2018-05-07T07:01:07.344Z,18.26
2018-05-07T07:02:12.053Z,18.17
2018-05-07T07:03:16.729Z,18.32
2018-05-07T07:04:21.308Z,18.10
2018-05-07T07:05:25.939Z,18.18
2018-05-07T07:06:30.930Z,18.29
2018-05-07T07:07:35.540Z,18.37
2018-05-07T07:08:40.294Z,18.60
2018-05-07T07:09:44.819Z,18.86
2018-05-07T07:10:49.419Z,18.83
2018-05-07T07:11:54.366Z,18.64
2018-05-07T07:12:59.352Z,18.54
2018-05-07T07:14:03.927Z,18.39
2018-05-07T07:15:10.057Z,18.38
2018-05-07T07:16:14.650Z,18.08
2018-05-07T07:17:22.504Z,18.02
2018-05-07T07:18:27.214Z,17.82
2018-05-07T07:19:32.357Z,18.30
2018-05-07T07:20:36.914Z,18.41
2018-05-07T07:21:41.572Z,18.64
2018-05-07T07:22:46.145Z,18.97
2018-05-07T07:23:50.752Z,19.18
2018-05-07T07:24:55.382Z,19.42
2018-05-07T07:26:00.253Z,19.52
2018-05-07T07:27:04.906Z,19.55
2018-05-07T07:28:09.522Z,19.55
2018-05-07T07:29:14.109Z,19.28
2018-05-07T07:30:18.710Z,18.94
2018-05-07T07:31:23.230Z,18.84
2018-05-07T07:32:28.046Z,18.66
2018-05-07T07:33:32.630Z,18.72
2018-05-07T07:34:37.221Z,18.65
2018-05-07T07:35:41.739Z,18.46
2018-05-07T07:36:46.334Z,18.50
2018-05-07T07:37:50.851Z,18.62
2018-05-07T07:38:55.873Z,18.76
2018-05-07T07:40:00.374Z,19.03
2018-05-07T07:41:04.921Z,18.95
2018-05-07T07:42:09.454Z,18.61
2018-05-07T07:43:14.062Z,18.78
2018-05-07T07:44:18.660Z,19.16
2018-05-07T07:45:23.705Z,18.92
2018-05-07T07:46:28.571Z,18.89
2018-05-07T07:47:34.257Z,19.08
2018-05-07T07:48:38.945Z,19.16
2018-05-07T07:49:43.429Z,19.28
2018-05-07T07:50:48.140Z,19.40
2018-05-07T07:51:53.215Z,19.28
2018-05-07T07:52:57.746Z,19.10
2018-05-07T07:54:02.323Z,18.88
2018-05-07T07:55:06.924Z,18.91
2018-05-07T07:56:11.831Z,18.89
2018-05-07T07:57:18.397Z,18.98
2018-05-07T07:58:23.419Z,19.15
2018-05-07T07:59:28.876Z,19.22
2018-05-07T08:00:33.473Z,19.18
2018-05-07T08:01:37.982Z,19.40
2018-05-07T08:02:42.554Z,19.50
2018-05-07T08:03:47.234Z,19.38
2018-05-07T08:04:52.101Z,19.46
2018-05-07T08:05:56.578Z,19.43
2018-05-07T08:07:02.054Z,19.35
2018-05-07T08:08:07.149Z,19.64
2018-05-07T08:09:11.645Z,19.67
2018-05-07T08:10:16.198Z,19.53
2018-05-07T08:11:21.236Z,19.78
2018-05-07T08:12:25.847Z,19.68
2018-05-07T08:13:30.347Z,19.78
2018-05-07T08:14:35.071Z,19.76
2018-05-07T08:15:39.578Z,19.64
2018-05-07T08:16:44.036Z,19.51
2018-05-07T08:17:48.895Z,19.47
2018-05-07T08:18:53.450Z,19.56
2018-05-07T08:19:58.057Z,20.16
2018-05-07T08:21:02.739Z,20.30
2018-05-07T08:22:07.344Z,19.96
2018-05-07T08:23:11.956Z,19.55
2018-05-07T08:24:17.038Z,19.56
2018-05-07T08:25:21.652Z,19.48
2018-05-07T08:26:26.340Z,19.91
2018-05-07T08:27:30.967Z,20.27
2018-05-07T08:28:35.536Z,20.56
2018-05-07T08:29:40.143Z,20.79
2018-05-07T08:30:44.767Z,20.31
2018-05-07T08:31:49.386Z,20.21
2018-05-07T08:32:53.944Z,19.84
2018-05-07T08:33:58.479Z,19.92
2018-05-07T08:35:03.110Z,19.88
2018-05-07T08:36:08.106Z,19.91
2018-05-07T08:37:12.726Z,19.66
2018-05-07T08:38:17.481Z,19.82
2018-05-07T08:39:22.137Z,20.05
2018-05-07T08:40:26.734Z,20.48
2018-05-07T08:41:31.436Z,20.77
2018-05-07T08:42:36.502Z,20.93
2018-05-07T08:43:41.268Z,20.56
2018-05-07T08:44:45.899Z,20.68
2018-05-07T08:45:50.577Z,20.91
2018-05-07T08:46:55.179Z,20.88
2018-05-07T08:47:59.835Z,20.45
2018-05-07T08:49:04.768Z,20.56
2018-05-07T08:50:09.263Z,20.96
2018-05-07T08:51:13.800Z,21.29
2018-05-07T08:52:18.335Z,21.37
2018-05-07T08:53:22.799Z,21.29
2018-05-07T08:54:27.302Z,21.37
2018-05-07T08:55:32.183Z,21.39
2018-05-07T08:56:36.688Z,21.08
2018-05-07T08:57:41.177Z,20.85
2018-05-07T08:58:45.695Z,21.04
2018-05-07T08:59:50.174Z,20.88
2018-05-07T09:00:54.858Z,20.77
2018-05-07T09:02:00.029Z,20.40
2018-05-07T09:03:04.771Z,20.58
2018-05-07T09:04:09.566Z,20.82
2018-05-07T09:05:14.425Z,21.30
2018-05-07T09:06:19.201Z,20.78
2018-05-07T09:07:23.928Z,20.43
2018-05-07T09:08:29.049Z,20.52
2018-05-07T09:09:33.678Z,20.52
2018-05-07T09:10:38.270Z,20.43
2018-05-07T09:11:42.850Z,20.43
2018-05-07T09:12:48.268Z,20.49
2018-05-07T09:13:52.929Z,20.70
2018-05-07T09:14:57.978Z,20.45
2018-05-07T09:16:02.582Z,20.62
2018-05-07T09:17:07.295Z,21.09
2018-05-07T09:18:11.901Z,21.25
2018-05-07T09:19:16.412Z,20.86
2018-05-07T09:20:21.018Z,21.16
2018-05-07T09:21:26.090Z,21.62
2018-05-07T09:22:30.588Z,22.01
2018-05-07T09:23:35.140Z,21.92
2018-05-07T09:24:39.676Z,21.96
2018-05-07T09:25:44.221Z,21.70
2018-05-07T09:26:48.716Z,21.82
2018-05-07T09:27:53.672Z,21.78
2018-05-07T09:28:58.176Z,21.77
2018-05-07T09:30:02.721Z,21.57
2018-05-07T09:31:07.301Z,21.28
2018-05-07T09:32:11.936Z,20.63
2018-05-07T09:33:16.481Z,20.86
2018-05-07T09:34:21.045Z,20.86
2018-05-07T09:35:25.805Z,20.93
2018-05-07T09:36:30.423Z,21.34
2018-05-07T09:37:35.186Z,21.57
2018-05-07T09:38:39.668Z,21.62
2018-05-07T09:39:44.609Z,21.78
2018-05-07T09:40:49.132Z,22.01
2018-05-07T09:41:53.693Z,22.09
2018-05-07T09:42:58.304Z,22.45
2018-05-07T09:44:03.859Z,22.50
2018-05-07T09:45:08.344Z,21.87
2018-05-07T09:46:13.277Z,21.43
2018-05-07T09:47:17.748Z,21.42
2018-05-07T09:48:22.317Z,21.83
2018-05-07T09:49:26.874Z,22.25
2018-05-07T09:50:31.417Z,22.35
2018-05-07T09:51:35.955Z,22.59
2018-05-07T09:52:41.020Z,22.50
2018-05-07T09:53:45.465Z,22.29
2018-05-07T09:54:50.064Z,22.13
2018-05-07T09:55:54.648Z,21.46
2018-05-07T09:56:59.350Z,21.25
2018-05-07T09:58:04.126Z,21.60
2018-05-07T09:59:09.035Z,21.70
2018-05-07T10:00:13.624Z,21.78
2018-05-07T10:01:18.654Z,21.87
2018-05-07T10:02:23.267Z,21.60
2018-05-07T10:03:27.964Z,21.56
2018-05-07T10:04:32.411Z,21.19
2018-05-07T10:05:37.875Z,21.28
2018-05-07T10:06:42.468Z,21.64
2018-05-07T10:07:47.070Z,21.55
2018-05-07T10:08:51.929Z,21.03
2018-05-07T10:09:56.548Z,21.11
2018-05-07T10:11:01.142Z,21.53
2018-05-07T10:12:06.073Z,21.61
2018-05-07T10:13:10.724Z,21.37
2018-05-07T10:14:15.352Z,21.52
2018-05-07T10:15:20.070Z,21.87
2018-05-07T10:16:24.629Z,22.19
2018-05-07T10:17:29.297Z,22.29
2018-05-07T10:18:34.091Z,22.23
2018-05-07T10:19:38.551Z,22.07
2018-05-07T10:20:43.077Z,22.04
2018-05-07T10:21:47.653Z,21.66
2018-05-07T10:22:52.125Z,22.01
2018-05-07T10:23:56.700Z,22.20
2018-05-07T10:25:01.708Z,21.74
2018-05-07T10:26:06.357Z,21.58
2018-05-07T10:27:10.974Z,21.84
2018-05-07T10:28:15.437Z,21.77
2018-05-07T10:29:20.125Z,21.38
2018-05-07T10:30:24.943Z,21.43
2018-05-07T10:31:29.937Z,21.81
2018-05-07T10:32:34.443Z,21.89
2018-05-07T10:33:38.956Z,22.22
2018-05-07T10:34:43.467Z,21.99
2018-05-07T10:35:47.961Z,21.77
2018-05-07T10:36:52.849Z,22.16
2018-05-07T10:37:58.033Z,22.35
2018-05-07T10:39:02.570Z,22.80
2018-05-07T10:40:07.072Z,23.24
2018-05-07T10:41:11.581Z,23.15
2018-05-07T10:42:16.125Z,23.03
2018-05-07T10:43:20.672Z,22.73
2018-05-07T10:44:25.785Z,22.16
2018-05-07T10:45:30.683Z,22.27
2018-05-07T10:46:35.172Z,22.23
2018-05-07T10:47:39.709Z,22.03
2018-05-07T10:48:44.225Z,22.20
2018-05-07T10:49:48.819Z,22.37
2018-05-07T10:50:53.700Z,22.39
2018-05-07T10:51:58.154Z,22.69
2018-05-07T10:53:02.784Z,22.69
2018-05-07T10:54:07.281Z,22.57
2018-05-07T10:55:11.953Z,22.95
2018-05-07T10:56:16.543Z,23.28
2018-05-07T10:57:21.471Z,23.43
2018-05-07T10:58:25.975Z,23.77
2018-05-07T10:59:30.477Z,23.87
2018-05-07T11:00:34.986Z,23.43
2018-05-07T11:01:39.549Z,23.40
2018-05-07T11:02:44.056Z,23.55
2018-05-07T11:03:48.909Z,23.50
2018-05-07T11:04:53.482Z,23.22
2018-05-07T11:05:57.953Z,23.28
2018-05-07T11:07:02.470Z,23.13
2018-05-07T11:08:07.015Z,22.85
2018-05-07T11:09:11.897Z,22.73
2018-05-07T11:10:16.856Z,23.07
2018-05-07T11:11:21.496Z,23.38
2018-05-07T11:12:26.076Z,23.67
2018-05-07T11:13:30.705Z,23.76
2018-05-07T11:14:35.325Z,23.91
2018-05-07T11:15:39.945Z,24.24
2018-05-07T11:16:45.272Z,24.22
2018-05-07T11:17:49.824Z,23.97
2018-05-07T11:18:54.343Z,23.90
2018-05-07T11:19:58.948Z,24.03
2018-05-07T11:21:04.312Z,24.13
2018-05-07T11:22:08.838Z,24.07
2018-05-07T11:23:13.834Z,23.21
2018-05-07T11:24:18.307Z,23.18
2018-05-07T11:25:22.851Z,23.02
2018-05-07T11:26:27.351Z,23.06
2018-05-07T11:27:31.858Z,23.04
2018-05-07T11:28:36.476Z,22.99
2018-05-07T11:29:41.502Z,23.44
2018-05-07T11:30:46.014Z,23.27
2018-05-07T11:31:51.620Z,22.99
2018-05-07T11:32:56.133Z,23.24
2018-05-07T11:34:01.363Z,23.22
2018-05-07T11:35:05.843Z,22.78
2018-05-07T11:36:10.784Z,22.91
2018-05-07T11:37:15.402Z,23.19
2018-05-07T11:38:20.594Z,23.18
2018-05-07T11:39:26.063Z,22.87
2018-05-07T11:40:30.573Z,23.23
2018-05-07T11:41:35.027Z,23.77
2018-05-07T11:42:39.999Z,23.73
2018-05-07T11:43:44.605Z,23.98
2018-05-07T11:44:49.098Z,23.48
2018-05-07T11:45:53.646Z,23.21
2018-05-07T11:46:58.126Z,23.25
2018-05-07T11:48:02.709Z,23.39
2018-05-07T11:49:07.585Z,23.32
2018-05-07T11:50:12.606Z,23.43
2018-05-07T11:51:17.102Z,23.71
2018-05-07T11:52:21.850Z,24.18
2018-05-07T11:53:26.505Z,24.47
2018-05-07T11:54:31.159Z,24.72
2018-05-07T11:55:36.247Z,24.87
2018-05-07T11:56:41.454Z,25.06
2018-05-07T11:57:45.962Z,24.76
2018-05-07T11:58:50.839Z,24.02
2018-05-07T11:59:55.331Z,23.91
2018-05-07T12:00:59.854Z,23.79
2018-05-07T12:02:05.065Z,24.03
2018-05-07T12:03:09.830Z,23.51
2018-05-07T12:04:14.724Z,23.32
2018-05-07T12:05:19.495Z,23.34
2018-05-07T12:06:24.134Z,23.52
2018-05-07T12:07:28.643Z,23.43
2018-05-07T12:08:33.882Z,23.58
2018-05-07T12:09:38.385Z,23.74
2018-05-07T12:10:42.964Z,23.79
2018-05-07T12:11:47.407Z,23.53
2018-05-07T12:12:51.935Z,23.43
2018-05-07T12:13:57.905Z,23.43
2018-05-07T12:15:03.001Z,24.09
2018-05-07T12:16:07.718Z,23.90
2018-05-07T12:17:12.231Z,24.35
2018-05-07T12:18:16.845Z,24.83
2018-05-07T12:19:21.393Z,25.05
2018-05-07T12:20:25.864Z,25.06
2018-05-07T12:21:30.463Z,25.30
2018-05-07T12:22:34.985Z,25.22
2018-05-07T12:23:39.446Z,25.07
2018-05-07T12:24:43.955Z,24.84
2018-05-07T12:25:48.452Z,24.61
2018-05-07T12:26:53.283Z,24.80
2018-05-07T12:27:57.842Z,24.47
2018-05-07T12:29:02.361Z,24.05
2018-05-07T12:30:06.843Z,24.57
2018-05-07T12:31:11.496Z,24.19
2018-05-07T12:32:16.157Z,24.04
2018-05-07T12:33:20.932Z,24.27
2018-05-07T12:34:25.464Z,24.37
2018-05-07T12:35:30.007Z,24.13
2018-05-07T12:36:35.336Z,24.16
2018-05-07T12:37:39.858Z,24.21
2018-05-07T12:38:44.400Z,24.63
2018-05-07T12:39:48.928Z,24.68
2018-05-07T12:40:53.476Z,24.97
2018-05-07T12:41:58.098Z,25.09
2018-05-07T12:43:02.596Z,24.65
2018-05-07T12:44:07.067Z,24.74
2018-05-07T12:45:12.228Z,24.50
2018-05-07T12:46:16.842Z,24.57
2018-05-07T12:47:21.372Z,24.86
2018-05-07T12:48:25.819Z,24.49
2018-05-07T12:49:30.315Z,24.40
2018-05-07T12:50:34.855Z,24.29
2018-05-07T12:51:39.860Z,24.92
2018-05-07T12:52:44.461Z,25.04
2018-05-07T12:53:48.967Z,25.22
2018-05-07T12:54:53.549Z,25.15
2018-05-07T12:55:58.180Z,24.68
2018-05-07T12:57:02.881Z,24.71
2018-05-07T12:58:07.836Z,24.25
2018-05-07T12:59:12.451Z,24.34
2018-05-07T13:00:17.225Z,24.72
2018-05-07T13:01:23.337Z,25.07
2018-05-07T13:02:29.047Z,25.06
2018-05-07T13:03:33.628Z,25.01
2018-05-07T13:04:38.603Z,24.83
2018-05-07T13:05:48.240Z,24.64
2018-05-07T13:06:52.945Z,24.67
2018-05-07T13:07:58.074Z,24.80
2018-05-07T13:09:02.675Z,25.19
2018-05-07T13:10:07.756Z,25.56
2018-05-07T13:11:12.715Z,25.76
2018-05-07T13:12:19.507Z,24.89
2018-05-07T13:13:24.186Z,24.34
2018-05-07T13:14:29.446Z,24.62
2018-05-07T13:15:34.132Z,24.99
2018-05-07T13:16:39.757Z,24.62
2018-05-07T13:17:45.909Z,24.42
2018-05-07T13:18:51.476Z,24.83
2018-05-07T13:19:56.162Z,25.47
2018-05-07T13:21:00.791Z,25.31
2018-05-07T13:22:05.847Z,25.52
2018-05-07T13:23:10.545Z,25.67
2018-05-07T13:24:15.654Z,25.61
2018-05-07T13:25:20.609Z,25.68
2018-05-07T13:26:25.424Z,25.99
2018-05-07T13:27:30.166Z,26.10
2018-05-07T13:28:35.048Z,25.56
2018-05-07T13:29:40.020Z,25.78
2018-05-07T13:30:46.318Z,26.07
2018-05-07T13:31:50.910Z,26.25
2018-05-07T13:32:55.481Z,25.86
2018-05-07T13:34:02.131Z,25.72
2018-05-07T13:35:06.719Z,25.97
2018-05-07T13:36:12.163Z,25.44
2018-05-07T13:37:18.448Z,25.44
2018-05-07T13:38:24.594Z,25.67
2018-05-07T13:39:29.218Z,25.78
2018-05-07T13:40:33.815Z,25.10
2018-05-07T13:41:38.797Z,25.71
2018-05-07T13:42:45.239Z,26.47
2018-05-07T13:43:50.860Z,27.05
2018-05-07T13:44:55.419Z,27.55
2018-05-07T13:46:00.349Z,27.22
2018-05-07T13:47:05.259Z,27.35
2018-05-07T13:48:10.174Z,26.90
2018-05-07T13:49:15.491Z,26.88
2018-05-07T13:50:20.673Z,26.78
2018-05-07T13:51:25.393Z,26.13
2018-05-07T13:52:30.018Z,26.29
2018-05-07T13:53:35.675Z,26.17
2018-05-07T13:54:40.304Z,26.30
2018-05-07T13:55:45.195Z,26.82